Time;durP1;ratioP1;P1;durP2;ratioP2;P2;SDS_P1;SDS_P2;PMS_P1;PMS_P2;Temp;Humidity;BMP_temperature;BMP_pressure;BME280_temperature;BME280_humidity;BME280_pressure;Samples;Min_cycle;Max_cycle;Signal;HPM_P1;HPM_P2
2021/08/17 00:00:15;;;;;;;38.57;22.00;;;12.00;99.90;;;;;;5053159;28;20940;-68
2021/08/17 00:02:42;;;;;;;39.10;22.73;;;12.00;99.90;;;;;;5056835;28;20463;-68
2021/08/17 00:05:10;;;;;;;35.70;23.10;;;12.00;99.90;;;;;;5047651;28;20494;-69
2021/08/17 00:07:38;;;;;;;42.17;25.17;;;12.00;99.90;;;;;;5057515;28;20459;-69
2021/08/17 00:10:05;;;;;;;34.63;21.30;;;12.00;99.90;;;;;;5052735;28;20822;-69
2021/08/17 00:12:33;;;;;;;38.90;22.87;;;12.10;99.90;;;;;;5052684;28;20462;-68
2021/08/17 00:15:01;;;;;;;42.97;24.20;;;12.00;99.90;;;;;;5054291;28;20898;-69
2021/08/17 00:17:29;;;;;;;51.27;26.33;;;12.10;99.90;;;;;;5058426;28;20460;-72
2021/08/17 00:19:56;;;;;;;39.33;24.77;;;12.10;99.90;;;;;;5045876;28;20460;-69
2021/08/17 00:22:23;;;;;;;47.33;25.03;;;12.10;99.90;;;;;;5050606;28;20456;-69
2021/08/17 00:24:51;;;;;;;43.33;25.53;;;12.10;99.90;;;;;;5046123;28;20996;-69
2021/08/17 00:27:18;;;;;;;49.73;27.83;;;12.10;99.90;;;;;;5056182;28;20463;-69
2021/08/17 00:29:48;;;;;;;53.70;27.17;;;12.10;99.90;;;;;;5054736;28;20799;-69
2021/08/17 00:32:16;;;;;;;44.73;27.23;;;12.10;99.90;;;;;;5052975;28;20462;-68
2021/08/17 00:34:42;;;;;;;48.33;26.53;;;12.10;99.90;;;;;;5048681;28;20475;-70
2021/08/17 00:37:10;;;;;;;50.53;28.30;;;12.10;99.90;;;;;;5045505;28;20922;-68
2021/08/17 00:39:37;;;;;;;56.73;28.53;;;12.10;99.90;;;;;;5050692;28;20534;-68
2021/08/17 00:42:08;;;;;;;54.50;27.10;;;12.10;99.90;;;;;;5050368;28;20466;-69
2021/08/17 00:44:35;;;;;;;53.83;28.33;;;12.10;99.90;;;;;;5052382;28;20494;-70
2021/08/17 00:47:04;;;;;;;59.37;30.07;;;12.10;99.90;;;;;;5049935;28;20459;-68
2021/08/17 00:49:32;;;;;;;56.73;29.63;;;12.10;99.90;;;;;;5050214;28;20487;-68
2021/08/17 00:52:01;;;;;;;59.70;30.60;;;12.10;99.90;;;;;;5057728;28;20475;-70
2021/08/17 00:54:29;;;;;;;62.37;29.77;;;12.10;99.90;;;;;;5045807;28;20503;-68
2021/08/17 00:56:57;;;;;;;61.20;30.90;;;12.20;99.90;;;;;;5057043;28;20482;-68
2021/08/17 00:59:24;;;;;;;68.50;32.47;;;12.20;99.90;;;;;;5052255;28;20462;-68
2021/08/17 01:01:52;;;;;;;59.10;30.87;;;12.20;99.90;;;;;;5055295;28;20785;-68
2021/08/17 01:04:20;;;;;;;60.33;31.20;;;12.20;99.90;;;;;;5049547;28;20523;-68
2021/08/17 01:06:48;;;;;;;64.53;32.10;;;12.20;99.90;;;;;;5044439;28;20477;-68
2021/08/17 01:09:15;;;;;;;62.13;32.50;;;12.20;99.90;;;;;;5051723;28;20462;-71
2021/08/17 01:11:47;;;;;;;69.93;31.50;;;12.20;99.90;;;;;;5050530;28;20855;-69
2021/08/17 01:14:15;;;;;;;64.40;31.73;;;12.20;99.90;;;;;;5051792;28;20997;-68
2021/08/17 01:16:43;;;;;;;60.33;33.50;;;12.30;99.90;;;;;;5050782;28;20474;-68
2021/08/17 01:19:13;;;;;;;61.63;31.57;;;12.30;99.90;;;;;;5053039;28;20459;-68
2021/08/17 01:21:42;;;;;;;73.43;36.10;;;12.30;99.90;;;;;;5049742;28;20460;-69
2021/08/17 01:24:10;;;;;;;64.07;32.83;;;12.30;99.90;;;;;;5052997;28;20459;-68
2021/08/17 01:26:38;;;;;;;66.43;32.30;;;12.30;99.90;;;;;;5051058;28;20874;-70
2021/08/17 01:29:08;;;;;;;66.30;32.50;;;12.30;99.90;;;;;;5051133;28;20910;-68
2021/08/17 01:31:36;;;;;;;58.83;32.10;;;12.30;99.90;;;;;;5053746;28;20942;-68
2021/08/17 01:34:04;;;;;;;60.23;30.73;;;12.30;99.90;;;;;;5048724;28;20488;-68
2021/08/17 01:36:31;;;;;;;64.87;32.93;;;12.30;99.90;;;;;;5053679;28;20491;-68
2021/08/17 01:38:58;;;;;;;72.47;33.20;;;12.30;99.90;;;;;;5051877;28;20460;-69
2021/08/17 01:41:25;;;;;;;63.17;31.80;;;12.30;99.90;;;;;;5051824;28;21009;-68
2021/08/17 01:43:55;;;;;;;84.67;36.10;;;12.20;99.90;;;;;;5051844;28;20466;-68
2021/08/17 01:46:22;;;;;;;65.60;34.90;;;12.30;99.90;;;;;;5052523;28;20841;-70
2021/08/17 01:48:49;;;;;;;65.40;33.50;;;12.20;99.90;;;;;;5049481;28;20455;-67
2021/08/17 01:51:16;;;;;;;66.27;35.53;;;12.20;99.90;;;;;;5047630;28;20464;-69
2021/08/17 01:53:43;;;;;;;76.77;35.47;;;12.20;99.90;;;;;;5046021;28;20518;-71
2021/08/17 01:56:12;;;;;;;77.90;34.73;;;12.20;99.90;;;;;;5048489;28;20950;-68
2021/08/17 01:58:41;;;;;;;72.10;34.77;;;12.20;99.90;;;;;;5050791;28;20471;-70
2021/08/17 02:01:11;;;;;;;66.43;35.20;;;12.20;99.90;;;;;;5047221;28;20451;-68
2021/08/17 02:03:39;;;;;;;65.97;34.00;;;12.20;99.90;;;;;;5050534;28;20784;-68
2021/08/17 02:06:07;;;;;;;73.77;35.63;;;12.10;99.90;;;;;;5045158;28;20463;-70
2021/08/17 02:08:34;;;;;;;76.70;34.90;;;12.10;99.90;;;;;;5051633;28;20459;-68
2021/08/17 02:11:00;;;;;;;74.00;35.47;;;12.10;99.90;;;;;;5052843;28;20465;-70
2021/08/17 02:13:29;;;;;;;66.43;34.10;;;12.10;99.90;;;;;;5049814;28;20459;-68
2021/08/17 02:16:00;;;;;;;68.03;34.13;;;12.10;99.90;;;;;;5049000;28;21043;-68
2021/08/17 02:18:30;;;;;;;63.20;32.30;;;12.10;99.90;;;;;;5049319;28;20487;-68
2021/08/17 02:20:58;;;;;;;64.40;33.40;;;12.10;99.90;;;;;;5045015;28;21259;-68
2021/08/17 02:23:26;;;;;;;65.43;34.23;;;12.00;99.90;;;;;;5053843;28;20580;-68
2021/08/17 02:25:53;;;;;;;66.00;32.63;;;12.10;99.90;;;;;;5051752;28;20455;-67
2021/08/17 02:28:20;;;;;;;65.93;34.93;;;12.00;99.90;;;;;;5055919;28;20454;-68
2021/08/17 02:30:47;;;;;;;71.93;33.93;;;12.00;99.90;;;;;;5049144;28;20463;-67
2021/08/17 02:33:14;;;;;;;71.60;33.70;;;12.00;99.90;;;;;;5049007;28;20463;-68
2021/08/17 02:35:44;;;;;;;80.87;33.10;;;12.00;99.90;;;;;;5052980;28;20512;-71
2021/08/17 02:38:12;;;;;;;67.13;33.90;;;12.00;99.90;;;;;;5053470;28;20467;-68
2021/08/17 02:40:40;;;;;;;66.73;33.23;;;12.00;99.90;;;;;;5058634;28;20494;-69
2021/08/17 02:43:08;;;;;;;69.63;34.73;;;12.00;99.90;;;;;;5056776;28;20471;-71
2021/08/17 02:45:35;;;;;;;67.03;32.53;;;12.00;99.90;;;;;;5053537;28;20464;-69
2021/08/17 02:48:04;;;;;;;67.40;35.07;;;12.00;99.90;;;;;;5061381;28;20463;-70
2021/08/17 02:50:31;;;;;;;67.03;31.50;;;12.00;99.90;;;;;;5054059;28;20467;-69
2021/08/17 02:52:59;;;;;;;70.00;33.13;;;12.00;99.90;;;;;;5058434;28;20536;-68
2021/08/17 02:55:26;;;;;;;61.50;33.47;;;12.00;99.90;;;;;;5055949;28;20490;-68
2021/08/17 02:57:54;;;;;;;69.20;34.17;;;12.00;99.90;;;;;;5056025;28;20455;-67
2021/08/17 03:00:22;;;;;;;70.17;35.43;;;12.00;99.90;;;;;;5056540;28;20460;-67
2021/08/17 03:02:50;;;;;;;71.13;33.00;;;12.00;99.90;;;;;;5053548;28;20490;-70
2021/08/17 03:05:17;;;;;;;59.67;31.20;;;11.90;99.90;;;;;;5053027;28;20984;-68
2021/08/17 03:07:51;;;;;;;64.87;31.63;;;11.90;99.90;;;;;;5059566;28;20513;-69
2021/08/17 03:10:20;;;;;;;62.63;32.53;;;11.90;99.90;;;;;;5050821;28;20821;-68
2021/08/17 03:12:47;;;;;;;75.77;33.33;;;11.90;99.90;;;;;;5051369;28;20461;-69
2021/08/17 03:15:14;;;;;;;69.40;33.97;;;11.80;99.90;;;;;;5049850;28;20504;-68
2021/08/17 03:17:42;;;;;;;71.53;34.00;;;11.80;99.90;;;;;;5058363;28;20478;-67
2021/08/17 03:20:11;;;;;;;65.17;33.90;;;11.80;99.90;;;;;;5046217;28;20838;-68
2021/08/17 03:22:39;;;;;;;72.87;33.77;;;11.80;99.90;;;;;;5054537;28;20461;-68
2021/08/17 03:25:08;;;;;;;66.23;31.70;;;11.80;99.90;;;;;;5050449;28;20482;-68
2021/08/17 03:27:37;;;;;;;69.00;34.40;;;11.80;99.90;;;;;;5050650;28;20455;-69
2021/08/17 03:30:09;;;;;;;68.20;33.90;;;11.80;99.90;;;;;;5055553;28;20463;-68
2021/08/17 03:32:37;;;;;;;72.63;35.40;;;11.80;99.90;;;;;;5059553;28;20492;-69
2021/08/17 03:35:05;;;;;;;74.77;32.77;;;11.90;99.90;;;;;;5052425;28;20494;-68
2021/08/17 03:37:33;;;;;;;71.90;32.50;;;11.90;99.90;;;;;;5052619;28;20515;-69
2021/08/17 03:40:00;;;;;;;65.93;32.50;;;11.90;99.90;;;;;;5050484;28;20459;-68
2021/08/17 03:42:29;;;;;;;73.20;33.53;;;11.90;99.90;;;;;;5058718;28;20463;-68
2021/08/17 03:44:58;;;;;;;80.53;34.97;;;11.90;99.90;;;;;;5055499;28;20498;-68
2021/08/17 03:47:25;;;;;;;77.80;33.13;;;11.90;99.90;;;;;;5057409;28;20454;-68
2021/08/17 03:49:53;;;;;;;68.87;32.40;;;11.90;99.90;;;;;;5055473;28;20462;-68
2021/08/17 03:52:20;;;;;;;71.13;33.53;;;12.00;99.90;;;;;;5051643;28;20841;-70
2021/08/17 03:54:48;;;;;;;83.03;34.17;;;12.00;99.90;;;;;;5049504;28;20488;-68
2021/08/17 03:57:15;;;;;;;76.70;33.00;;;12.00;99.90;;;;;;5051797;28;20698;-68
2021/08/17 03:59:42;;;;;;;70.77;32.40;;;12.10;99.90;;;;;;5052178;28;20934;-68
2021/08/17 04:02:10;;;;;;;66.07;32.73;;;12.10;99.90;;;;;;5052519;28;20972;-69
2021/08/17 04:04:37;;;;;;;62.30;34.30;;;12.00;99.90;;;;;;5057257;28;20459;-68
2021/08/17 04:07:05;;;;;;;81.27;33.87;;;12.10;99.90;;;;;;5055936;28;20468;-68
2021/08/17 04:09:31;;;;;;;59.90;31.80;;;12.00;99.90;;;;;;5052934;28;20466;-70
2021/08/17 04:11:59;;;;;;;59.60;32.30;;;12.00;99.90;;;;;;5048092;28;20463;-68
2021/08/17 04:14:26;;;;;;;63.83;32.33;;;12.00;99.90;;;;;;5050935;28;20497;-69
2021/08/17 04:16:56;;;;;;;73.40;32.33;;;12.10;99.90;;;;;;5048884;28;20487;-70
2021/08/17 04:19:24;;;;;;;75.93;31.67;;;12.00;99.90;;;;;;5049636;28;20487;-71
2021/08/17 04:21:52;;;;;;;67.33;31.90;;;12.10;99.90;;;;;;5050142;28;21022;-68
2021/08/17 04:24:19;;;;;;;63.27;32.47;;;12.00;99.90;;;;;;5051142;28;20471;-69
2021/08/17 04:26:46;;;;;;;66.57;30.33;;;12.00;99.90;;;;;;5052051;28;20467;-68
2021/08/17 04:29:14;;;;;;;95.80;36.60;;;12.00;99.90;;;;;;5057494;28;20455;-70
2021/08/17 04:31:41;;;;;;;92.10;37.47;;;12.00;99.90;;;;;;5050903;28;20464;-69
2021/08/17 04:34:08;;;;;;;87.93;36.43;;;11.90;99.90;;;;;;5048726;28;20463;-69
2021/08/17 04:36:36;;;;;;;75.20;35.80;;;12.00;99.90;;;;;;5050952;28;20577;-68
2021/08/17 04:39:03;;;;;;;76.07;34.50;;;12.00;99.90;;;;;;5048427;28;20463;-68
2021/08/17 04:41:30;;;;;;;83.47;35.43;;;12.10;99.90;;;;;;5051921;28;20466;-68
2021/08/17 04:43:57;;;;;;;66.93;33.67;;;12.10;99.90;;;;;;5052164;28;20472;-69
2021/08/17 04:46:24;;;;;;;74.20;33.60;;;12.10;99.90;;;;;;5049156;28;20591;-69
2021/08/17 04:48:51;;;;;;;69.40;33.63;;;12.20;99.90;;;;;;5051474;28;20573;-68
2021/08/17 04:51:19;;;;;;;75.50;34.17;;;12.20;99.90;;;;;;5054265;28;20460;-68
2021/08/17 04:53:48;;;;;;;67.30;33.10;;;12.20;99.90;;;;;;5049186;28;20508;-71
2021/08/17 04:56:15;;;;;;;72.17;35.57;;;12.20;99.90;;;;;;5055902;28;20498;-68
2021/08/17 04:58:42;;;;;;;62.70;32.70;;;12.20;99.90;;;;;;5049667;28;20483;-70
2021/08/17 05:01:09;;;;;;;68.00;32.50;;;12.30;99.90;;;;;;5049855;28;20448;-69
2021/08/17 05:03:37;;;;;;;69.97;33.33;;;12.30;99.90;;;;;;5053048;28;20454;-68
2021/08/17 05:06:04;;;;;;;67.37;34.57;;;12.40;99.90;;;;;;5054682;28;20484;-70
2021/08/17 05:08:31;;;;;;;69.00;33.37;;;12.40;99.90;;;;;;5052106;28;20463;-69
2021/08/17 05:10:59;;;;;;;70.20;33.37;;;12.50;99.90;;;;;;5055186;28;20447;-69
2021/08/17 05:13:26;;;;;;;62.90;33.47;;;12.60;99.90;;;;;;5054140;28;20933;-68
2021/08/17 05:15:53;;;;;;;73.53;33.47;;;12.70;99.90;;;;;;5051718;28;20818;-68
2021/08/17 05:18:21;;;;;;;75.77;33.87;;;12.80;99.90;;;;;;5050866;28;20456;-68
2021/08/17 05:20:48;;;;;;;73.03;34.53;;;12.90;99.90;;;;;;5050356;28;20454;-69
2021/08/17 05:23:15;;;;;;;74.07;36.37;;;12.90;99.90;;;;;;5051748;28;20456;-69
2021/08/17 05:25:43;;;;;;;68.30;34.30;;;13.00;99.90;;;;;;5046099;28;20584;-69
2021/08/17 05:28:11;;;;;;;70.90;35.70;;;13.00;99.90;;;;;;5056052;28;20647;-72
2021/08/17 05:30:38;;;;;;;86.87;34.33;;;13.10;99.90;;;;;;5055413;28;20458;-69
2021/08/17 05:33:06;;;;;;;88.43;39.13;;;13.10;99.90;;;;;;5050238;28;20471;-71
2021/08/17 05:35:34;;;;;;;84.97;35.77;;;13.20;99.90;;;;;;5053357;28;20598;-68
2021/08/17 05:38:01;;;;;;;68.97;33.10;;;13.20;99.90;;;;;;5052140;28;20490;-69
2021/08/17 05:40:29;;;;;;;83.00;34.77;;;13.20;99.90;;;;;;5045954;28;20896;-69
2021/08/17 05:42:56;;;;;;;79.70;33.90;;;13.20;99.90;;;;;;5052222;28;20961;-69
2021/08/17 05:45:25;;;;;;;76.97;35.20;;;13.20;99.90;;;;;;5054374;28;20458;-69
2021/08/17 05:47:51;;;;;;;69.00;32.90;;;13.30;99.90;;;;;;5052879;28;20467;-69
2021/08/17 05:50:18;;;;;;;77.20;37.07;;;13.40;99.90;;;;;;5051274;28;20460;-71
2021/08/17 05:52:45;;;;;;;85.43;35.40;;;13.40;99.90;;;;;;5055533;28;20934;-69
2021/08/17 05:55:13;;;;;;;78.63;34.53;;;13.40;99.90;;;;;;5049034;28;20479;-68
2021/08/17 05:57:40;;;;;;;72.63;34.00;;;13.60;99.90;;;;;;5046183;28;20460;-69
2021/08/17 06:00:10;;;;;;;72.30;35.23;;;13.50;99.90;;;;;;5046089;28;21005;-69
2021/08/17 06:02:39;;;;;;;77.77;34.57;;;13.60;99.90;;;;;;5055538;28;20577;-68
2021/08/17 06:05:08;;;;;;;74.13;33.83;;;13.60;99.90;;;;;;5051473;28;20460;-71
2021/08/17 06:07:36;;;;;;;80.60;34.57;;;13.70;99.90;;;;;;5047722;28;20490;-69
2021/08/17 06:10:04;;;;;;;69.13;31.63;;;13.70;99.90;;;;;;5057736;28;20455;-70
2021/08/17 06:12:31;;;;;;;73.43;33.60;;;13.80;99.90;;;;;;5054880;28;20507;-69
2021/08/17 06:14:58;;;;;;;53.27;24.93;;;13.80;99.90;;;;;;5057000;28;20491;-70
2021/08/17 06:17:26;;;;;;;67.50;30.47;;;13.90;99.90;;;;;;5058939;28;20494;-72
2021/08/17 06:19:55;;;;;;;69.90;30.87;;;14.00;99.90;;;;;;5051435;28;20460;-69
2021/08/17 06:22:22;;;;;;;71.27;28.90;;;14.10;99.90;;;;;;5054508;28;21088;-69
2021/08/17 06:24:49;;;;;;;58.10;29.13;;;14.30;99.90;;;;;;5054869;28;20463;-69
2021/08/17 06:27:16;;;;;;;73.10;30.30;;;14.40;99.90;;;;;;5056758;28;20474;-71
2021/08/17 06:29:43;;;;;;;71.20;31.53;;;14.40;99.90;;;;;;5053964;28;20857;-71
2021/08/17 06:32:10;;;;;;;67.53;30.30;;;14.50;99.90;;;;;;5058021;28;21030;-70
2021/08/17 06:34:37;;;;;;;54.73;30.03;;;14.70;99.90;;;;;;5053495;28;20455;-69
2021/08/17 06:37:06;;;;;;;55.00;28.60;;;14.80;99.90;;;;;;5052501;28;20925;-69
2021/08/17 06:39:33;;;;;;;55.23;29.43;;;15.00;99.90;;;;;;5054990;28;20804;-69
2021/08/17 06:42:00;;;;;;;54.27;30.53;;;14.90;99.90;;;;;;5052822;28;20833;-69
2021/08/17 06:44:27;;;;;;;50.30;29.43;;;15.00;99.90;;;;;;5055125;28;20978;-69
2021/08/17 06:46:54;;;;;;;59.63;31.47;;;14.90;99.90;;;;;;5053236;28;20509;-71
2021/08/17 06:49:21;;;;;;;55.17;29.80;;;14.90;99.90;;;;;;5051955;28;20459;-72
2021/08/17 06:51:48;;;;;;;51.27;29.50;;;15.00;99.90;;;;;;5050573;28;20555;-70
2021/08/17 06:54:16;;;;;;;50.57;29.63;;;14.80;99.90;;;;;;5050519;28;20486;-69
2021/08/17 06:56:43;;;;;;;50.70;30.23;;;14.80;99.90;;;;;;5052980;28;20491;-69
2021/08/17 06:59:10;;;;;;;50.80;28.23;;;14.90;99.90;;;;;;5054740;28;20451;-69
2021/08/17 07:01:37;;;;;;;50.83;30.33;;;14.80;99.90;;;;;;5058152;28;20460;-72
2021/08/17 07:04:04;;;;;;;49.73;29.40;;;14.90;99.90;;;;;;5058738;28;20821;-69
2021/08/17 07:06:35;;;;;;;50.73;29.73;;;15.10;99.90;;;;;;5047120;28;20683;-68
2021/08/17 07:09:02;;;;;;;50.00;30.40;;;15.20;99.90;;;;;;5050723;28;20482;-68
2021/08/17 07:11:31;;;;;;;40.03;29.70;;;15.30;99.90;;;;;;5051483;28;20456;-69
2021/08/17 07:13:58;;;;;;;46.40;30.23;;;15.40;99.90;;;;;;5052484;28;20470;-69
2021/08/17 07:16:25;;;;;;;49.47;30.17;;;15.40;99.90;;;;;;5053384;28;20483;-69
2021/08/17 07:18:52;;;;;;;49.90;30.70;;;15.50;99.90;;;;;;5061882;28;20452;-70
2021/08/17 07:21:19;;;;;;;46.40;28.40;;;15.40;99.90;;;;;;5050833;28;20478;-69
2021/08/17 07:23:46;;;;;;;42.90;29.23;;;15.50;99.90;;;;;;5051211;28;20467;-70
2021/08/17 07:26:13;;;;;;;42.80;29.73;;;15.60;99.90;;;;;;5055381;28;20455;-71
2021/08/17 07:28:41;;;;;;;59.53;30.97;;;15.40;99.90;;;;;;5062549;28;20521;-72
2021/08/17 07:31:10;;;;;;;51.63;30.07;;;15.50;99.90;;;;;;5049628;28;20458;-69
2021/08/17 07:33:37;;;;;;;51.30;30.13;;;15.60;99.90;;;;;;5056370;28;20584;-70
2021/08/17 07:36:04;;;;;;;49.80;29.80;;;15.60;99.90;;;;;;5049483;28;20486;-70
2021/08/17 07:38:31;;;;;;;49.77;28.67;;;15.60;99.90;;;;;;5052751;28;20471;-71
2021/08/17 07:40:58;;;;;;;43.23;28.00;;;15.60;99.90;;;;;;5053978;28;20486;-71
2021/08/17 07:43:25;;;;;;;40.00;28.03;;;15.50;99.90;;;;;;5050867;28;20455;-69
2021/08/17 07:45:54;;;;;;;39.93;29.30;;;15.60;99.90;;;;;;5054726;28;20446;-69
2021/08/17 07:48:21;;;;;;;42.73;28.03;;;15.80;99.90;;;;;;5063681;28;20482;-69
2021/08/17 07:50:48;;;;;;;40.40;27.73;;;16.00;99.90;;;;;;5051162;28;20463;-72
2021/08/17 07:53:15;;;;;;;46.10;30.57;;;16.00;99.90;;;;;;5056689;28;21072;-73
2021/08/17 07:55:42;;;;;;;37.43;28.60;;;16.30;99.90;;;;;;5052636;28;20486;-69
2021/08/17 07:58:09;;;;;;;45.37;30.53;;;16.30;99.90;;;;;;5051553;28;20466;-69
2021/08/17 08:00:36;;;;;;;38.87;28.67;;;16.20;99.90;;;;;;5054213;28;20544;-70
2021/08/17 08:03:04;;;;;;;43.67;29.43;;;16.30;99.90;;;;;;5050227;28;20538;-71
2021/08/17 08:05:31;;;;;;;38.70;27.23;;;16.30;99.90;;;;;;5052489;28;20467;-70
2021/08/17 08:07:58;;;;;;;37.80;27.83;;;16.20;99.90;;;;;;5048377;28;20536;-69
2021/08/17 08:10:25;;;;;;;41.77;28.63;;;16.50;99.90;;;;;;5049041;28;20460;-70
2021/08/17 08:12:52;;;;;;;53.10;27.53;;;16.60;99.90;;;;;;5054307;28;21045;-70
2021/08/17 08:15:19;;;;;;;35.73;27.40;;;16.80;99.90;;;;;;5048448;28;20471;-71
2021/08/17 08:17:46;;;;;;;42.77;30.53;;;16.90;99.90;;;;;;5055853;28;20463;-69
2021/08/17 08:20:15;;;;;;;33.00;29.50;;;17.10;99.90;;;;;;5056721;28;20469;-70
2021/08/17 08:22:42;;;;;;;32.73;29.07;;;17.00;99.90;;;;;;5053068;28;20462;-71
2021/08/17 08:25:10;;;;;;;38.80;28.57;;;16.80;99.90;;;;;;5055476;28;20461;-70
2021/08/17 08:27:38;;;;;;;45.20;29.50;;;16.90;99.90;;;;;;5057063;28;20482;-70
2021/08/17 08:30:06;;;;;;;37.40;26.70;;;17.00;99.90;;;;;;5050995;28;20463;-69
2021/08/17 08:32:33;;;;;;;33.67;27.50;;;17.00;99.90;;;;;;5053913;28;20556;-69
2021/08/17 08:35:01;;;;;;;38.00;29.67;;;16.80;99.90;;;;;;5045583;28;20463;-72
2021/08/17 08:37:30;;;;;;;33.63;27.77;;;17.10;99.90;;;;;;5046525;28;20505;-69
2021/08/17 08:39:57;;;;;;;45.57;27.50;;;17.10;99.90;;;;;;5053688;28;20929;-70
2021/08/17 08:42:25;;;;;;;33.03;28.40;;;17.20;99.90;;;;;;5054348;28;20455;-70
2021/08/17 08:44:53;;;;;;;36.50;26.63;;;17.30;99.90;;;;;;5052029;28;20461;-73
2021/08/17 08:47:21;;;;;;;32.20;26.80;;;17.60;99.90;;;;;;5055461;28;20459;-70
2021/08/17 08:49:50;;;;;;;36.00;27.30;;;17.60;99.90;;;;;;5044985;28;20467;-72
2021/08/17 08:52:17;;;;;;;33.90;27.80;;;17.50;99.90;;;;;;5055328;28;20463;-70
2021/08/17 08:54:46;;;;;;;32.50;27.20;;;17.50;99.90;;;;;;5055890;28;20454;-70
2021/08/17 08:57:13;;;;;;;34.90;28.40;;;17.90;99.90;;;;;;5050720;28;20568;-70
2021/08/17 08:59:41;;;;;;;31.87;28.43;;;17.60;99.90;;;;;;5049539;28;20807;-70
2021/08/17 09:02:10;;;;;;;37.80;27.33;;;17.60;99.90;;;;;;5054022;28;20470;-70
2021/08/17 09:04:38;;;;;;;35.90;28.83;;;17.80;99.90;;;;;;5052851;28;20864;-71
2021/08/17 09:07:06;;;;;;;33.43;28.30;;;17.70;99.90;;;;;;5052890;28;20461;-70
2021/08/17 09:09:34;;;;;;;27.73;24.83;;;18.00;99.90;;;;;;5056863;28;20469;-70
2021/08/17 09:12:04;;;;;;;31.13;27.73;;;18.00;99.90;;;;;;5055310;28;20550;-70
2021/08/17 09:14:33;;;;;;;30.57;25.87;;;18.20;99.90;;;;;;5052264;28;20821;-69
2021/08/17 09:17:02;;;;;;;33.93;29.20;;;18.20;99.90;;;;;;5055302;28;20556;-70
2021/08/17 09:19:34;;;;;;;36.00;27.43;;;18.20;99.90;;;;;;5049289;28;20546;-70
2021/08/17 09:22:04;;;;;;;30.47;25.57;;;18.40;99.90;;;;;;5046365;28;20460;-70
2021/08/17 09:24:33;;;;;;;32.40;27.80;;;18.60;99.90;;;;;;5054425;28;20460;-70
2021/08/17 09:27:03;;;;;;;32.67;28.63;;;18.70;99.90;;;;;;5052585;28;20466;-73
2021/08/17 09:29:35;;;;;;;34.93;28.17;;;18.70;99.90;;;;;;5044960;28;20460;-70
2021/08/17 09:32:12;;;;;;;33.60;29.33;;;18.50;99.90;;;;;;5050403;28;20462;-70
2021/08/17 09:34:41;;;;;;;33.27;27.63;;;18.30;99.90;;;;;;5047680;28;20471;-72
2021/08/17 09:37:11;;;;;;;31.17;27.87;;;18.40;99.90;;;;;;5052150;28;20566;-73
2021/08/17 09:39:41;;;;;;;34.53;28.07;;;18.50;99.90;;;;;;5051775;28;20454;-70
2021/08/17 09:42:19;;;;;;;32.07;28.03;;;18.10;99.90;;;;;;5054445;28;20467;-71
2021/08/17 09:44:48;;;;;;;30.73;27.43;;;18.00;99.90;;;;;;5052088;28;20469;-70
2021/08/17 09:47:15;;;;;;;30.60;27.27;;;17.90;99.90;;;;;;5049261;28;20459;-69
2021/08/17 09:49:42;;;;;;;35.57;28.30;;;18.10;99.90;;;;;;5053798;28;20489;-70
2021/08/17 09:52:12;;;;;;;36.47;28.30;;;18.10;99.90;;;;;;5058697;28;20661;-69
2021/08/17 09:54:41;;;;;;;38.03;27.73;;;18.20;99.90;;;;;;5046331;28;20487;-70
2021/08/17 09:57:10;;;;;;;32.83;27.83;;;18.10;99.90;;;;;;5053007;28;20493;-70
2021/08/17 09:59:39;;;;;;;31.90;28.10;;;18.00;99.90;;;;;;5054253;28;20459;-69
2021/08/17 10:02:10;;;;;;;35.10;28.30;;;17.70;99.90;;;;;;5051777;28;20787;-70
2021/08/17 10:04:39;;;;;;;30.20;26.53;;;17.70;99.90;;;;;;5044284;28;20838;-70
2021/08/17 10:07:08;;;;;;;32.90;28.03;;;17.90;99.90;;;;;;5050537;28;20914;-70
2021/08/17 10:09:36;;;;;;;35.57;30.43;;;17.90;99.90;;;;;;5055903;28;20451;-70
2021/08/17 10:12:06;;;;;;;32.10;27.93;;;18.00;99.90;;;;;;5052958;28;20459;-68
2021/08/17 10:14:34;;;;;;;31.63;28.40;;;18.10;99.90;;;;;;5047187;28;20474;-68
2021/08/17 10:17:03;;;;;;;32.37;28.60;;;18.00;99.90;;;;;;5052440;28;20495;-71
2021/08/17 10:19:33;;;;;;;38.77;28.90;;;18.10;99.90;;;;;;5044013;28;20460;-70
2021/08/17 10:22:05;;;;;;;29.47;26.37;;;18.20;99.90;;;;;;5058791;28;20511;-70
2021/08/17 10:24:34;;;;;;;28.80;25.90;;;18.10;99.90;;;;;;5045951;28;20462;-70
2021/08/17 10:27:24;;;;;;;28.30;25.33;;;17.80;99.90;;;;;;5051851;28;20473;-71
2021/08/17 10:29:57;;;;;;;30.87;27.33;;;17.90;99.90;;;;;;5053898;28;20455;-70
2021/08/17 10:32:39;;;;;;;27.47;24.77;;;18.00;99.90;;;;;;5047416;28;20502;-69
2021/08/17 10:35:07;;;;;;;26.73;24.03;;;17.90;99.90;;;;;;5052525;28;20879;-70
2021/08/17 10:37:35;;;;;;;29.00;24.87;;;17.90;99.90;;;;;;5050714;28;20488;-69
2021/08/17 10:40:03;;;;;;;25.20;22.60;;;17.70;99.90;;;;;;5045502;28;20486;-71
2021/08/17 10:42:30;;;;;;;25.23;23.03;;;17.50;99.90;;;;;;5051109;28;20516;-68
2021/08/17 10:45:25;;;;;;;24.77;22.33;;;17.40;99.90;;;;;;5051850;28;20953;-68
2021/08/17 10:47:53;;;;;;;29.20;23.30;;;17.30;99.90;;;;;;5047989;28;20822;-68
2021/08/17 10:50:31;;;;;;;27.90;25.07;;;17.20;99.90;;;;;;5041648;28;20455;-69
2021/08/17 10:52:58;;;;;;;25.73;23.20;;;17.30;99.90;;;;;;5040897;28;20480;-71
2021/08/17 10:55:39;;;;;;;24.50;21.90;;;17.20;99.90;;;;;;5046617;28;20478;-71
2021/08/17 10:58:09;;;;;;;24.20;21.93;;;17.20;99.90;;;;;;5053316;28;20494;-71
2021/08/17 11:00:52;;;;;;;24.33;21.80;;;17.20;99.90;;;;;;5066869;28;20558;-70
2021/08/17 11:03:58;;;;;;;26.10;23.40;;;16.90;99.90;;;;;;5051709;28;20481;-69
2021/08/17 11:06:45;;;;;;;26.03;21.90;;;16.90;99.90;;;;;;5050386;28;20544;-68
2021/08/17 11:09:14;;;;;;;24.70;22.70;;;16.80;99.90;;;;;;5052289;28;20466;-69
2021/08/17 11:11:44;;;;;;;28.57;23.67;;;16.70;99.90;;;;;;5057881;28;20462;-69
2021/08/17 11:14:16;;;;;;;24.50;22.40;;;16.80;99.90;;;;;;5051267;28;20466;-70
2021/08/17 11:16:46;;;;;;;26.20;23.60;;;16.80;99.90;;;;;;5051365;28;20495;-70
2021/08/17 11:19:14;;;;;;;25.67;23.40;;;16.70;99.90;;;;;;5051059;28;20458;-69
2021/08/17 11:21:45;;;;;;;25.30;22.90;;;16.80;99.90;;;;;;5049297;28;20526;-71
2021/08/17 11:24:31;;;;;;;25.07;22.97;;;16.70;99.90;;;;;;5051996;28;21253;-71
2021/08/17 11:27:00;;;;;;;24.87;22.73;;;16.70;99.90;;;;;;5051081;28;20510;-72
2021/08/17 11:29:32;;;;;;;25.53;23.20;;;16.60;99.90;;;;;;5054864;28;20985;-69
2021/08/17 11:32:02;;;;;;;26.00;23.57;;;16.70;99.90;;;;;;5051022;28;20464;-70
2021/08/17 11:34:31;;;;;;;26.37;23.83;;;16.60;99.90;;;;;;5055174;28;20460;-69
2021/08/17 11:37:05;;;;;;;26.63;24.00;;;16.60;99.90;;;;;;5051842;28;20476;-69
2021/08/17 11:39:37;;;;;;;27.00;24.60;;;16.70;99.90;;;;;;5053243;28;20988;-70
2021/08/17 11:42:13;;;;;;;26.60;23.93;;;16.60;99.90;;;;;;5054342;28;20576;-69
2021/08/17 11:44:42;;;;;;;28.23;25.47;;;16.70;99.90;;;;;;5055043;28;20462;-69
2021/08/17 11:47:11;;;;;;;25.80;23.33;;;16.80;99.90;;;;;;5057911;28;20490;-72
2021/08/17 11:49:38;;;;;;;30.10;26.67;;;16.90;99.90;;;;;;5053521;28;20460;-72
2021/08/17 11:52:12;;;;;;;33.03;26.20;;;17.10;99.90;;;;;;5048205;28;20458;-69
2021/08/17 11:54:59;;;;;;;28.30;25.30;;;17.10;99.90;;;;;;5053325;28;20820;-72
2021/08/17 11:57:30;;;;;;;28.53;24.50;;;17.40;99.90;;;;;;5058250;28;21019;-69
2021/08/17 12:00:03;;;;;;;27.73;25.03;;;17.40;99.90;;;;;;5051472;28;20898;-69
2021/08/17 12:02:30;;;;;;;25.80;23.30;;;17.50;99.90;;;;;;5052148;28;20470;-70
2021/08/17 12:04:59;;;;;;;26.77;24.17;;;17.30;99.90;;;;;;5048168;28;20456;-70
2021/08/17 12:07:29;;;;;;;26.17;23.83;;;17.20;99.90;;;;;;5053094;28;20541;-70
2021/08/17 12:10:05;;;;;;;25.17;22.77;;;17.20;99.90;;;;;;5052248;28;20950;-70
2021/08/17 12:12:53;;;;;;;26.67;23.83;;;17.20;99.90;;;;;;5055429;28;20458;-69
2021/08/17 12:15:26;;;;;;;24.90;22.50;;;17.00;99.90;;;;;;5054265;28;20925;-72
2021/08/17 12:17:57;;;;;;;23.20;21.00;;;17.10;99.90;;;;;;5056369;28;20484;-69
2021/08/17 12:20:25;;;;;;;23.90;21.77;;;17.30;99.90;;;;;;5053111;28;20820;-71
2021/08/17 12:22:53;;;;;;;23.07;20.90;;;17.40;99.90;;;;;;5055163;28;20471;-71
2021/08/17 12:25:22;;;;;;;23.90;21.37;;;17.60;99.90;;;;;;5045564;28;20541;-70
2021/08/17 12:27:54;;;;;;;22.33;20.50;;;17.60;99.90;;;;;;5054704;28;20464;-70
2021/08/17 12:30:29;;;;;;;23.33;21.00;;;17.70;99.90;;;;;;5051848;28;20462;-71
2021/08/17 12:32:56;;;;;;;21.37;19.27;;;17.70;99.90;;;;;;5059738;28;20529;-72
2021/08/17 12:35:28;;;;;;;22.43;20.30;;;17.80;99.90;;;;;;5052062;28;20695;-71